Time;durP1;ratioP1;P1;durP2;ratioP2;P2;SDS_P1;SDS_P2;PMS_P1;PMS_P2;Temp;Humidity;BMP_temperature;BMP_pressure;BME280_temperature;BME280_humidity;BME280_pressure;Samples;Min_cycle;Max_cycle;Signal;HPM_P1;HPM_P2
2023/01/08 00:00:18;;;;;;;7.23;4.53;;;8.60;99.90;;;;;;472235;250;28358;-79
2023/01/08 00:02:19;;;;;;;5.80;3.57;;;8.60;99.90;;;;;;472240;250;28371;-79
2023/01/08 00:04:20;;;;;;;6.40;3.70;;;8.70;99.90;;;;;;472251;247;27773;-79
2023/01/08 00:06:22;;;;;;;4.10;3.70;;;8.70;99.90;;;;;;472260;250;27839;-80
2023/01/08 00:08:23;;;;;;;5.00;4.50;;;8.70;99.90;;;;;;472262;250;27899;-80
2023/01/08 00:10:24;;;;;;;6.63;4.10;;;8.80;99.90;;;;;;472265;250;27911;-80
2023/01/08 00:12:27;;;;;;;6.40;3.43;;;8.70;99.90;;;;;;472221;251;27779;-79
2023/01/08 00:14:29;;;;;;;3.63;3.10;;;8.80;99.90;;;;;;472228;250;28108;-79
2023/01/08 00:16:30;;;;;;;5.40;3.90;;;8.80;99.90;;;;;;472210;250;27938;-79
2023/01/08 00:18:31;;;;;;;4.00;3.70;;;8.80;99.90;;;;;;472250;250;27885;-79
2023/01/08 00:20:32;;;;;;;4.40;3.40;;;8.80;99.90;;;;;;472228;252;28159;-79
2023/01/08 00:22:34;;;;;;;4.43;3.60;;;8.80;99.90;;;;;;472264;250;28109;-79
2023/01/08 00:24:35;;;;;;;4.37;3.73;;;8.80;99.90;;;;;;472296;250;27923;-79
2023/01/08 00:26:36;;;;;;;4.80;3.83;;;8.80;99.90;;;;;;472246;250;28137;-79
2023/01/08 00:28:37;;;;;;;4.00;3.70;;;8.80;99.90;;;;;;472233;251;28038;-79
2023/01/08 00:30:39;;;;;;;5.03;4.13;;;8.80;99.90;;;;;;472226;250;28159;-79
2023/01/08 00:32:40;;;;;;;6.17;3.47;;;8.80;99.90;;;;;;472255;251;27848;-79
2023/01/08 00:34:41;;;;;;;3.83;3.43;;;8.80;99.90;;;;;;472287;250;27558;-79
2023/01/08 00:36:42;;;;;;;4.77;3.10;;;8.80;99.90;;;;;;472218;250;28110;-80
2023/01/08 00:38:44;;;;;;;3.70;3.40;;;8.80;99.90;;;;;;472236;251;28232;-78
2023/01/08 00:40:45;;;;;;;4.40;3.73;;;8.80;99.90;;;;;;472227;250;28560;-79
2023/01/08 00:42:46;;;;;;;5.73;3.30;;;8.90;99.90;;;;;;472269;250;28093;-80
2023/01/08 00:44:47;;;;;;;3.97;3.43;;;8.90;99.90;;;;;;472259;250;27629;-79
2023/01/08 00:46:49;;;;;;;3.93;3.27;;;8.80;99.90;;;;;;472220;252;28034;-79
2023/01/08 00:48:50;;;;;;;4.17;3.13;;;8.80;99.90;;;;;;472225;250;27994;-79
2023/01/08 00:50:51;;;;;;;4.37;3.60;;;8.80;99.90;;;;;;472166;251;27574;-80
2023/01/08 00:52:52;;;;;;;6.17;4.20;;;8.80;99.90;;;;;;472239;246;28267;-79
2023/01/08 00:54:54;;;;;;;4.37;3.60;;;8.80;99.90;;;;;;472235;250;27995;-79
2023/01/08 00:56:55;;;;;;;7.43;3.53;;;8.90;99.90;;;;;;472227;250;27964;-79
2023/01/08 00:58:56;;;;;;;4.93;4.10;;;8.90;99.90;;;;;;472218;251;27898;-78
2023/01/08 01:00:57;;;;;;;5.40;3.80;;;8.90;99.90;;;;;;472229;250;28086;-79
2023/01/08 01:02:59;;;;;;;4.17;3.83;;;8.90;99.90;;;;;;472233;250;28042;-80
2023/01/08 01:05:00;;;;;;;3.97;3.53;;;8.90;99.90;;;;;;472166;250;28072;-79
2023/01/08 01:07:01;;;;;;;4.20;3.80;;;8.90;99.90;;;;;;472046;250;27952;-80
2023/01/08 01:09:02;;;;;;;6.77;4.03;;;8.90;99.90;;;;;;472032;250;28543;-79
2023/01/08 01:11:04;;;;;;;4.63;4.20;;;8.90;99.90;;;;;;472002;250;28626;-79
2023/01/08 01:13:05;;;;;;;4.73;3.83;;;8.90;99.90;;;;;;472061;251;28668;-79
2023/01/08 01:15:06;;;;;;;4.80;4.00;;;8.90;99.90;;;;;;472108;251;27942;-79
2023/01/08 01:17:07;;;;;;;4.17;3.40;;;8.80;99.90;;;;;;472306;247;27962;-79
2023/01/08 01:19:09;;;;;;;5.20;3.57;;;8.80;99.90;;;;;;472240;247;27682;-79
2023/01/08 01:21:10;;;;;;;8.93;4.03;;;8.80;99.90;;;;;;472190;252;27694;-79
2023/01/08 01:23:11;;;;;;;3.63;3.30;;;8.80;99.90;;;;;;472295;250;28089;-79
2023/01/08 01:25:12;;;;;;;5.20;3.73;;;8.70;99.90;;;;;;472249;252;27799;-80
2023/01/08 01:27:15;;;;;;;5.00;3.97;;;8.80;99.90;;;;;;472234;250;27817;-81
2023/01/08 01:29:16;;;;;;;4.50;3.57;;;8.80;99.90;;;;;;472152;250;28088;-79
2023/01/08 01:31:17;;;;;;;5.07;3.80;;;8.70;99.90;;;;;;472228;250;28023;-79
2023/01/08 01:33:18;;;;;;;4.87;3.47;;;8.70;99.90;;;;;;472221;250;27989;-79
2023/01/08 01:35:20;;;;;;;3.93;3.63;;;8.70;99.90;;;;;;472257;250;28399;-79
2023/01/08 01:37:21;;;;;;;5.00;3.80;;;8.60;99.90;;;;;;472240;250;28423;-79
2023/01/08 01:39:22;;;;;;;4.43;4.03;;;8.60;99.90;;;;;;472219;250;28431;-79
2023/01/08 01:41:23;;;;;;;5.30;4.10;;;8.60;99.90;;;;;;472263;250;28273;-79
2023/01/08 01:43:25;;;;;;;5.40;4.30;;;8.60;99.90;;;;;;472202;251;28458;-78
2023/01/08 01:45:30;;;;;;;9.23;4.53;;;8.60;99.90;;;;;;472223;250;28051;-80
2023/01/08 01:47:30;;;;;;;4.80;4.30;;;8.50;99.90;;;;;;472200;250;28448;-78
2023/01/08 01:49:31;;;;;;;4.63;4.00;;;8.50;99.90;;;;;;472216;251;28440;-79
2023/01/08 01:51:33;;;;;;;5.60;4.23;;;8.50;99.90;;;;;;472212;250;28438;-80
2023/01/08 01:53:34;;;;;;;5.90;4.40;;;8.50;99.90;;;;;;472238;250;28376;-79
2023/01/08 01:55:35;;;;;;;6.67;4.07;;;8.50;99.90;;;;;;472210;250;27789;-79
2023/01/08 01:57:36;;;;;;;4.87;3.77;;;8.50;99.90;;;;;;472192;250;27915;-78
2023/01/08 01:59:38;;;;;;;5.03;4.17;;;8.50;99.90;;;;;;472216;250;28002;-79
2023/01/08 02:01:39;;;;;;;4.10;3.43;;;8.50;99.90;;;;;;472210;250;27909;-79
2023/01/08 02:03:40;;;;;;;4.83;4.23;;;8.40;99.90;;;;;;472219;250;27955;-79
2023/01/08 02:05:41;;;;;;;6.33;4.13;;;8.40;99.90;;;;;;472206;251;27918;-79
2023/01/08 02:07:43;;;;;;;3.90;3.60;;;8.40;99.90;;;;;;472204;250;27474;-80
2023/01/08 02:09:44;;;;;;;4.77;4.37;;;8.40;99.90;;;;;;472193;250;28009;-79
2023/01/08 02:11:45;;;;;;;6.17;4.37;;;8.40;99.90;;;;;;472192;252;28408;-79
2023/01/08 02:13:46;;;;;;;4.80;3.80;;;8.40;99.90;;;;;;472234;250;28784;-79
2023/01/08 02:15:48;;;;;;;7.00;4.90;;;8.40;99.90;;;;;;472219;250;28191;-79
2023/01/08 02:17:49;;;;;;;7.20;4.80;;;8.40;99.90;;;;;;472186;250;28408;-79
2023/01/08 02:19:50;;;;;;;4.80;4.33;;;8.40;99.90;;;;;;472097;252;28444;-79
2023/01/08 02:21:51;;;;;;;3.87;3.57;;;8.40;99.90;;;;;;472233;250;28093;-80
2023/01/08 02:23:53;;;;;;;7.20;3.60;;;8.40;99.90;;;;;;472250;250;27898;-80
2023/01/08 02:25:54;;;;;;;4.27;3.87;;;8.40;99.90;;;;;;472231;250;28020;-79
2023/01/08 02:27:55;;;;;;;4.03;3.63;;;8.40;99.90;;;;;;472205;247;27931;-79
2023/01/08 02:29:56;;;;;;;5.93;4.40;;;8.40;99.90;;;;;;472193;250;27511;-80
2023/01/08 02:31:58;;;;;;;6.30;4.47;;;8.40;99.90;;;;;;472189;250;27670;-80
2023/01/08 02:33:59;;;;;;;4.20;3.80;;;8.30;99.90;;;;;;472221;250;28307;-80
2023/01/08 02:36:00;;;;;;;4.00;3.57;;;8.30;99.90;;;;;;472221;250;27916;-79
2023/01/08 02:38:01;;;;;;;5.93;3.50;;;8.30;99.90;;;;;;472248;250;27905;-79
2023/01/08 02:40:03;;;;;;;7.63;4.60;;;8.40;99.90;;;;;;472216;250;28098;-79
2023/01/08 02:42:04;;;;;;;6.83;5.10;;;8.40;99.90;;;;;;472207;250;27618;-79
2023/01/08 02:44:05;;;;;;;5.90;5.10;;;8.30;99.90;;;;;;472247;251;27672;-80
2023/01/08 02:46:06;;;;;;;6.47;4.40;;;8.30;99.90;;;;;;472260;250;27876;-79
2023/01/08 02:48:08;;;;;;;4.20;3.30;;;8.30;99.90;;;;;;472236;250;27668;-80
2023/01/08 02:50:09;;;;;;;5.57;4.27;;;8.30;99.90;;;;;;472236;250;28217;-79
2023/01/08 02:52:10;;;;;;;3.90;3.60;;;8.30;99.90;;;;;;472209;251;28522;-79
2023/01/08 02:54:11;;;;;;;5.13;4.23;;;8.30;99.90;;;;;;472229;250;28897;-79
2023/01/08 02:56:13;;;;;;;4.90;4.40;;;8.30;99.90;;;;;;472186;250;28301;-79
2023/01/08 02:58:14;;;;;;;4.83;4.40;;;8.30;99.90;;;;;;472101;250;28528;-79
2023/01/08 03:00:15;;;;;;;7.40;3.50;;;8.40;99.90;;;;;;472066;250;28057;-79
2023/01/08 03:02:17;;;;;;;6.70;4.70;;;8.30;99.90;;;;;;472039;250;28157;-80
2023/01/08 03:04:18;;;;;;;4.00;3.60;;;8.40;99.90;;;;;;472158;250;27971;-81
2023/01/08 03:06:19;;;;;;;4.73;3.83;;;8.40;99.90;;;;;;471989;250;28162;-78
2023/01/08 03:08:20;;;;;;;4.53;4.10;;;8.30;99.90;;;;;;471037;251;28148;-80
2023/01/08 03:10:21;;;;;;;3.93;3.63;;;8.30;99.90;;;;;;471594;250;28043;-80
2023/01/08 03:12:23;;;;;;;4.90;3.90;;;8.30;99.90;;;;;;472080;250;28128;-78
2023/01/08 03:14:24;;;;;;;5.47;4.30;;;8.30;99.90;;;;;;472200;250;27890;-79
2023/01/08 03:16:25;;;;;;;4.57;4.13;;;8.30;99.90;;;;;;472275;250;28058;-79
2023/01/08 03:18:26;;;;;;;4.70;4.10;;;8.30;99.90;;;;;;472216;250;27963;-80
2023/01/08 03:20:28;;;;;;;4.70;3.53;;;8.30;99.90;;;;;;472206;250;28155;-79
2023/01/08 03:22:29;;;;;;;7.13;4.00;;;8.30;99.90;;;;;;472215;250;27534;-80
2023/01/08 03:24:30;;;;;;;4.03;3.63;;;8.30;99.90;;;;;;472245;250;27947;-79
2023/01/08 03:26:31;;;;;;;4.17;3.77;;;8.30;99.90;;;;;;472207;250;27904;-79
2023/01/08 03:28:33;;;;;;;4.07;3.77;;;8.30;99.90;;;;;;472210;250;28039;-79
2023/01/08 03:30:34;;;;;;;6.33;4.00;;;8.30;99.90;;;;;;472211;250;28035;-79
2023/01/08 03:32:35;;;;;;;8.73;4.43;;;8.30;99.90;;;;;;472211;250;28401;-79
2023/01/08 03:34:37;;;;;;;5.07;4.00;;;8.30;99.90;;;;;;472241;250;28314;-80
2023/01/08 03:36:38;;;;;;;5.83;4.13;;;8.30;99.90;;;;;;472262;251;28506;-80
2023/01/08 03:38:39;;;;;;;8.93;4.50;;;8.20;99.90;;;;;;472227;247;28383;-79
2023/01/08 03:40:40;;;;;;;8.57;4.30;;;8.30;99.90;;;;;;472224;250;28362;-79
2023/01/08 03:42:41;;;;;;;6.67;4.23;;;8.30;99.90;;;;;;472226;250;27954;-79
2023/01/08 03:44:43;;;;;;;6.83;4.63;;;8.30;99.90;;;;;;472235;250;28168;-80
2023/01/08 03:46:44;;;;;;;5.57;4.20;;;8.30;99.90;;;;;;472231;250;27877;-79
2023/01/08 03:48:45;;;;;;;5.97;4.40;;;8.20;99.90;;;;;;472221;250;27897;-79
2023/01/08 03:50:46;;;;;;;5.10;3.70;;;8.30;99.90;;;;;;472206;251;27987;-80
2023/01/08 03:52:48;;;;;;;5.20;4.37;;;8.30;99.90;;;;;;472250;251;28059;-80
2023/01/08 03:54:49;;;;;;;4.67;4.23;;;8.20;99.90;;;;;;472223;250;28036;-79
2023/01/08 03:56:50;;;;;;;4.07;3.67;;;8.20;99.90;;;;;;472222;250;27900;-80
2023/01/08 03:58:51;;;;;;;3.73;3.40;;;8.30;99.90;;;;;;472217;250;28014;-79
2023/01/08 04:00:53;;;;;;;6.57;4.37;;;8.30;99.90;;;;;;472227;250;28010;-79
2023/01/08 04:02:54;;;;;;;4.73;4.10;;;8.20;99.90;;;;;;472225;250;27922;-78
2023/01/08 04:04:55;;;;;;;6.43;4.03;;;8.20;99.90;;;;;;472251;250;27813;-80
2023/01/08 04:06:56;;;;;;;6.53;3.10;;;8.20;99.90;;;;;;472216;250;28457;-80
2023/01/08 04:08:58;;;;;;;3.33;3.03;;;8.20;99.90;;;;;;472213;250;28587;-81
2023/01/08 04:10:59;;;;;;;5.23;3.40;;;8.20;99.90;;;;;;472226;250;29293;-80
2023/01/08 04:13:00;;;;;;;5.90;3.60;;;8.20;99.90;;;;;;472241;250;28256;-80
2023/01/08 04:15:01;;;;;;;5.13;3.30;;;8.20;99.90;;;;;;472195;250;28411;-79
2023/01/08 04:17:03;;;;;;;4.73;3.10;;;8.30;99.90;;;;;;472215;250;28378;-79
2023/01/08 04:19:04;;;;;;;3.60;3.17;;;8.20;99.90;;;;;;472191;250;27913;-80
2023/01/08 04:21:05;;;;;;;3.87;3.00;;;8.20;99.90;;;;;;472213;246;27736;-79
2023/01/08 04:23:06;;;;;;;2.67;2.47;;;8.30;99.90;;;;;;472228;250;27904;-79
2023/01/08 04:25:08;;;;;;;7.30;3.47;;;8.20;99.90;;;;;;472201;250;27949;-80
2023/01/08 04:27:09;;;;;;;8.10;3.93;;;8.20;99.90;;;;;;472201;250;27908;-79
2023/01/08 04:29:11;;;;;;;6.97;3.50;;;8.20;99.90;;;;;;472214;250;27930;-79
2023/01/08 04:31:11;;;;;;;5.70;3.47;;;8.20;99.90;;;;;;472224;250;28057;-79
2023/01/08 04:33:13;;;;;;;4.00;3.10;;;8.10;99.90;;;;;;472220;250;27894;-80
2023/01/08 04:35:14;;;;;;;5.10;3.07;;;8.10;99.90;;;;;;472290;250;27716;-79
2023/01/08 04:37:15;;;;;;;4.00;2.90;;;8.20;99.90;;;;;;472223;250;27907;-79
2023/01/08 04:39:16;;;;;;;3.30;3.00;;;8.20;99.90;;;;;;472212;250;28136;-79
2023/01/08 04:41:18;;;;;;;2.90;2.70;;;8.10;99.90;;;;;;472239;250;27888;-79
2023/01/08 04:43:19;;;;;;;2.80;2.30;;;8.10;99.90;;;;;;472284;247;28040;-78
2023/01/08 04:45:20;;;;;;;2.50;2.40;;;8.10;99.90;;;;;;472241;250;28467;-79
2023/01/08 04:47:21;;;;;;;4.40;2.87;;;8.10;99.90;;;;;;472240;250;28485;-79
2023/01/08 04:49:23;;;;;;;2.50;2.30;;;8.00;99.90;;;;;;472196;250;28445;-79
2023/01/08 04:51:25;;;;;;;2.83;2.50;;;8.00;99.90;;;;;;472222;250;28563;-79
2023/01/08 04:53:25;;;;;;;2.53;2.27;;;8.00;99.90;;;;;;472213;250;28252;-79
2023/01/08 04:55:26;;;;;;;2.60;2.40;;;8.00;99.90;;;;;;472240;250;28363;-79
2023/01/08 04:57:28;;;;;;;2.30;2.20;;;8.00;99.90;;;;;;472207;250;28220;-79
2023/01/08 04:59:29;;;;;;;3.73;2.50;;;8.00;99.90;;;;;;472233;250;28103;-80
2023/01/08 05:01:30;;;;;;;3.33;2.57;;;8.00;99.90;;;;;;472246;251;27935;-78
2023/01/08 05:03:31;;;;;;;2.53;2.20;;;8.00;99.90;;;;;;472271;250;27502;-79
2023/01/08 05:05:33;;;;;;;3.47;2.10;;;8.00;99.90;;;;;;472262;251;27956;-80
2023/01/08 05:07:34;;;;;;;2.73;2.23;;;8.00;99.90;;;;;;472226;250;27897;-79
2023/01/08 05:09:35;;;;;;;2.63;2.20;;;8.00;99.90;;;;;;472212;250;27940;-79
2023/01/08 05:11:36;;;;;;;2.40;2.30;;;8.00;99.90;;;;;;472197;250;27951;-79
2023/01/08 05:13:38;;;;;;;2.50;2.10;;;7.90;99.90;;;;;;472243;250;27891;-80
2023/01/08 05:15:39;;;;;;;2.03;1.93;;;7.90;99.90;;;;;;472250;251;27689;-79
2023/01/08 05:17:40;;;;;;;2.40;2.03;;;7.90;99.90;;;;;;472237;250;27779;-79
2023/01/08 05:19:41;;;;;;;2.13;2.03;;;7.90;99.90;;;;;;472211;251;27843;-79
2023/01/08 05:21:43;;;;;;;2.13;2.00;;;7.90;99.90;;;;;;472220;250;27909;-78
2023/01/08 05:23:44;;;;;;;1.83;1.73;;;7.90;99.90;;;;;;472216;250;28482;-80
2023/01/08 05:25:45;;;;;;;2.60;2.27;;;7.90;99.90;;;;;;472143;250;28463;-79
2023/01/08 05:27:46;;;;;;;2.33;2.00;;;7.90;99.90;;;;;;472238;250;28279;-79
2023/01/08 05:29:48;;;;;;;2.20;2.03;;;7.90;99.90;;;;;;472214;250;28310;-80
2023/01/08 05:31:49;;;;;;;2.53;2.33;;;7.90;99.90;;;;;;472091;251;28439;-79
2023/01/08 05:33:50;;;;;;;3.93;2.03;;;7.90;99.90;;;;;;472135;246;28450;-78
2023/01/08 05:35:51;;;;;;;3.63;2.20;;;7.90;99.90;;;;;;472069;247;28097;-79
2023/01/08 05:37:53;;;;;;;1.73;1.63;;;7.90;99.90;;;;;;471999;250;27749;-79
2023/01/08 05:39:54;;;;;;;2.00;1.90;;;7.90;99.90;;;;;;471989;250;28039;-80
2023/01/08 05:41:55;;;;;;;2.10;2.00;;;7.90;99.90;;;;;;472169;251;28104;-79
2023/01/08 05:43:57;;;;;;;2.20;2.00;;;7.90;99.90;;;;;;472268;247;27914;-78
2023/01/08 05:45:58;;;;;;;2.17;2.07;;;7.90;99.90;;;;;;472237;251;27995;-78
2023/01/08 05:47:59;;;;;;;4.27;3.87;;;7.90;99.90;;;;;;472171;251;27923;-79
2023/01/08 05:50:00;;;;;;;13.27;12.00;;;7.90;99.90;;;;;;472240;250;28036;-79
2023/01/08 05:52:02;;;;;;;10.27;9.47;;;7.90;99.90;;;;;;472212;252;27961;-80
2023/01/08 05:54:03;;;;;;;3.23;3.03;;;7.90;99.90;;;;;;472207;251;28292;-79
2023/01/08 05:56:04;;;;;;;2.60;2.47;;;7.90;99.90;;;;;;472216;250;28517;-79
2023/01/08 05:58:05;;;;;;;2.30;2.07;;;7.80;99.90;;;;;;472232;251;28373;-79
2023/01/08 06:00:07;;;;;;;1.90;1.73;;;7.90;99.90;;;;;;472219;247;28433;-80
2023/01/08 06:02:08;;;;;;;2.33;2.13;;;7.80;99.90;;;;;;472260;251;29312;-78
2023/01/08 06:04:09;;;;;;;1.90;1.80;;;7.90;99.90;;;;;;472255;250;28574;-80
2023/01/08 06:06:10;;;;;;;1.93;1.83;;;7.80;99.90;;;;;;472229;250;27689;-79
2023/01/08 06:08:12;;;;;;;1.97;1.80;;;7.80;99.90;;;;;;472214;252;28211;-79
2023/01/08 06:10:13;;;;;;;1.97;1.87;;;7.80;99.90;;;;;;472176;251;28229;-79
2023/01/08 06:12:14;;;;;;;1.90;1.70;;;7.80;99.90;;;;;;472225;246;27970;-79
2023/01/08 06:14:15;;;;;;;1.60;1.50;;;7.80;99.90;;;;;;472235;250;27971;-79
2023/01/08 06:16:17;;;;;;;1.70;1.60;;;7.80;99.90;;;;;;472255;251;27713;-79
2023/01/08 06:18:18;;;;;;;1.43;1.33;;;7.70;99.90;;;;;;472234;250;27942;-79
2023/01/08 06:20:19;;;;;;;2.47;1.40;;;7.70;99.90;;;;;;472220;250;28046;-79
2023/01/08 06:22:20;;;;;;;4.40;1.67;;;7.70;99.90;;;;;;472227;250;27994;-80
2023/01/08 06:24:21;;;;;;;2.23;1.60;;;7.70;99.90;;;;;;472262;250;28026;-79
2023/01/08 06:26:23;;;;;;;1.73;1.63;;;7.70;99.90;;;;;;472231;250;28160;-79
2023/01/08 06:28:24;;;;;;;1.37;1.37;;;7.70;99.90;;;;;;472237;250;27951;-80
2023/01/08 06:30:25;;;;;;;1.77;1.60;;;7.70;99.90;;;;;;472230;250;27801;-79
2023/01/08 06:32:26;;;;;;;1.87;1.60;;;7.70;99.90;;;;;;472230;250;28497;-79
2023/01/08 06:34:28;;;;;;;1.53;1.40;;;7.60;99.90;;;;;;472264;250;28378;-80
2023/01/08 06:36:29;;;;;;;2.50;1.70;;;7.60;99.90;;;;;;472228;250;28170;-79
2023/01/08 06:38:30;;;;;;;1.27;1.23;;;7.60;99.90;;;;;;472231;250;28232;-79
2023/01/08 06:40:31;;;;;;;1.50;1.40;;;7.70;99.90;;;;;;472217;251;28605;-79
2023/01/08 06:42:33;;;;;;;1.57;1.43;;;7.70;99.90;;;;;;472253;246;28442;-79
2023/01/08 06:44:34;;;;;;;2.10;1.80;;;7.60;99.90;;;;;;472271;250;28006;-79
2023/01/08 06:46:39;;;;;;;1.97;1.30;;;7.60;99.90;;;;;;472255;250;27982;-79
2023/01/08 06:48:36;;;;;;;1.60;1.50;;;7.60;99.90;;;;;;472025;252;27951;-80
2023/01/08 06:50:38;;;;;;;1.60;1.50;;;7.60;99.90;;;;;;472248;250;27819;-79
2023/01/08 06:52:40;;;;;;;1.40;1.40;;;7.60;99.90;;;;;;472257;250;27838;-79
2023/01/08 06:54:41;;;;;;;1.90;1.80;;;7.70;99.90;;;;;;472300;251;28113;-80
2023/01/08 06:56:43;;;;;;;1.60;1.50;;;7.60;99.90;;;;;;472266;250;27923;-80
2023/01/08 06:58:44;;;;;;;1.60;1.50;;;7.60;99.90;;;;;;472238;251;27877;-79
2023/01/08 07:00:45;;;;;;;1.30;1.30;;;7.60;99.90;;;;;;472232;251;28422;-80
2023/01/08 07:02:46;;;;;;;1.27;1.20;;;7.60;99.90;;;;;;472225;250;28354;-79
2023/01/08 07:04:48;;;;;;;1.50;1.40;;;7.60;99.90;;;;;;472259;250;28446;-79
2023/01/08 07:06:49;;;;;;;4.20;1.50;;;7.60;99.90;;;;;;472247;251;28235;-79
2023/01/08 07:08:50;;;;;;;1.57;1.40;;;7.70;99.90;;;;;;472243;250;28431;-80
2023/01/08 07:10:51;;;;;;;1.30;1.20;;;7.60;99.90;;;;;;472238;252;27486;-79
2023/01/08 07:12:53;;;;;;;1.50;1.50;;;7.60;99.90;;;;;;472218;250;27923;-80
2023/01/08 07:14:54;;;;;;;1.20;1.20;;;7.60;99.90;;;;;;472252;250;28040;-80
2023/01/08 07:16:55;;;;;;;3.23;1.47;;;7.60;99.90;;;;;;472250;250;28007;-80
2023/01/08 07:18:56;;;;;;;1.30;1.20;;;7.70;99.90;;;;;;472235;250;27826;-79
2023/01/08 07:20:58;;;;;;;1.50;1.40;;;7.60;99.90;;;;;;472197;252;27975;-79
2023/01/08 07:22:59;;;;;;;1.47;1.37;;;7.70;99.90;;;;;;472199;251;27937;-79
2023/01/08 07:25:00;;;;;;;1.63;1.40;;;7.60;99.90;;;;;;472216;250;28338;-79
2023/01/08 07:27:01;;;;;;;1.50;1.40;;;7.60;99.90;;;;;;472253;250;27818;-79
2023/01/08 07:29:03;;;;;;;1.30;1.20;;;7.60;99.90;;;;;;472197;250;28061;-80
2023/01/08 07:31:04;;;;;;;1.70;1.60;;;7.60;99.90;;;;;;472223;250;27740;-80
2023/01/08 07:33:05;;;;;;;1.57;1.47;;;7.60;99.90;;;;;;472199;250;27808;-79
2023/01/08 07:35:06;;;;;;;1.40;1.30;;;7.60;99.90;;;;;;472247;250;27906;-78
2023/01/08 07:37:08;;;;;;;1.47;1.37;;;7.60;99.90;;;;;;472270;250;27547;-80
2023/01/08 07:39:09;;;;;;;1.60;1.50;;;7.70;99.90;;;;;;472247;251;28006;-80
2023/01/08 07:41:12;;;;;;;1.40;1.30;;;7.70;99.90;;;;;;472264;250;28306;-79
2023/01/08 07:43:11;;;;;;;2.80;1.67;;;7.60;99.90;;;;;;472224;250;28259;-80
2023/01/08 07:45:13;;;;;;;1.40;1.30;;;7.60;99.90;;;;;;472264;250;28516;-80
2023/01/08 07:47:14;;;;;;;1.60;1.50;;;7.60;99.90;;;;;;472241;251;28396;-79
2023/01/08 07:49:15;;;;;;;1.83;1.50;;;7.60;99.90;;;;;;472230;250;27620;-79
2023/01/08 07:51:16;;;;;;;1.57;1.47;;;7.60;99.90;;;;;;472255;250;27775;-80
2023/01/08 07:53:18;;;;;;;1.10;1.10;;;7.60;99.90;;;;;;472234;250;27919;-79
2023/01/08 07:55:19;;;;;;;1.40;1.30;;;7.60;99.90;;;;;;472263;250;27861;-79
2023/01/08 07:57:20;;;;;;;1.40;1.40;;;7.60;99.90;;;;;;472279;250;27810;-79
2023/01/08 07:59:21;;;;;;;2.40;1.70;;;7.60;99.90;;;;;;472235;250;27538;-79
2023/01/08 08:01:24;;;;;;;1.70;1.60;;;7.60;99.90;;;;;;472280;251;27980;-78
2023/01/08 08:03:24;;;;;;;1.50;1.40;;;7.60;99.90;;;;;;472149;250;27565;-80
2023/01/08 08:05:25;;;;;;;1.60;1.50;;;7.60;99.90;;;;;;472286;250;27994;-80
2023/01/08 08:07:26;;;;;;;1.53;1.43;;;7.70;99.90;;;;;;472273;250;27907;-78
2023/01/08 08:09:27;;;;;;;1.23;1.23;;;7.70;99.90;;;;;;472263;250;28031;-80
2023/01/08 08:11:29;;;;;;;1.40;1.30;;;7.70;99.90;;;;;;472247;250;27911;-79
2023/01/08 08:13:30;;;;;;;3.03;1.50;;;7.70;99.90;;;;;;472186;250;28094;-82
2023/01/08 08:15:31;;;;;;;1.40;1.30;;;7.70;99.90;;;;;;472206;250;27807;-79
2023/01/08 08:17:33;;;;;;;1.53;1.43;;;7.70;99.90;;;;;;472218;250;28549;-79
2023/01/08 08:19:34;;;;;;;1.60;1.50;;;7.70;99.90;;;;;;472126;251;28426;-79
2023/01/08 08:21:35;;;;;;;1.50;1.40;;;7.70;99.90;;;;;;472232;250;28241;-79
2023/01/08 08:23:36;;;;;;;1.20;1.10;;;7.70;99.90;;;;;;472215;250;28562;-79
2023/01/08 08:25:37;;;;;;;2.43;1.50;;;7.70;99.90;;;;;;472263;250;28401;-80
2023/01/08 08:27:39;;;;;;;3.03;1.77;;;7.70;99.90;;;;;;472248;251;28000;-79
2023/01/08 08:29:40;;;;;;;1.37;1.30;;;7.80;99.90;;;;;;472235;251;27818;-80
2023/01/08 08:31:41;;;;;;;1.40;1.30;;;7.70;99.90;;;;;;472240;250;27776;-80
2023/01/08 08:33:42;;;;;;;1.50;1.40;;;7.70;99.90;;;;;;472204;250;28003;-80
2023/01/08 08:35:44;;;;;;;1.37;1.27;;;7.70;99.90;;;;;;472242;250;27994;-80
2023/01/08 08:37:45;;;;;;;1.30;1.30;;;7.70;99.90;;;;;;472277;250;27462;-80
2023/01/08 08:39:46;;;;;;;1.30;1.20;;;7.70;99.90;;;;;;472248;251;27593;-79
2023/01/08 08:41:47;;;;;;;2.80;1.27;;;7.70;99.90;;;;;;472238;250;28100;-78
2023/01/08 08:43:50;;;;;;;1.50;1.40;;;7.70;99.90;;;;;;472267;252;28007;-80
2023/01/08 08:45:50;;;;;;;2.67;1.50;;;7.70;99.90;;;;;;472212;252;28076;-80
2023/01/08 08:47:51;;;;;;;1.57;1.47;;;7.80;99.90;;;;;;472229;250;27908;-79
2023/01/08 08:49:53;;;;;;;1.67;1.57;;;7.80;99.90;;;;;;472177;247;27575;-80
2023/01/08 08:51:54;;;;;;;1.47;1.37;;;7.80;99.90;;;;;;472208;250;27895;-79
2023/01/08 08:53:55;;;;;;;1.50;1.40;;;7.80;99.90;;;;;;472264;251;27625;-80
2023/01/08 08:55:56;;;;;;;1.53;1.43;;;7.80;99.90;;;;;;472256;250;28045;-79
2023/01/08 08:57:58;;;;;;;1.50;1.40;;;7.70;99.90;;;;;;472212;251;27817;-80
2023/01/08 08:59:59;;;;;;;1.90;1.80;;;7.80;99.90;;;;;;472234;250;27737;-80
2023/01/08 09:02:00;;;;;;;1.90;1.80;;;7.80;99.90;;;;;;472238;250;28097;-79
2023/01/08 09:04:01;;;;;;;1.60;1.50;;;7.80;99.90;;;;;;472259;251;27527;-79
2023/01/08 09:06:03;;;;;;;1.60;1.50;;;7.80;99.90;;;;;;472248;250;28180;-79
2023/01/08 09:08:04;;;;;;;1.87;1.70;;;7.90;99.90;;;;;;472223;250;28383;-80
2023/01/08 09:10:05;;;;;;;1.60;1.50;;;7.90;99.90;;;;;;472213;251;27981;-80
2023/01/08 09:12:07;;;;;;;1.73;1.50;;;7.90;99.90;;;;;;472235;250;28334;-79
2023/01/08 09:14:08;;;;;;;1.80;1.70;;;7.90;99.90;;;;;;472250;250;28475;-79
2023/01/08 09:16:09;;;;;;;1.67;1.57;;;7.90;99.90;;;;;;472229;252;27916;-79
2023/01/08 09:18:10;;;;;;;1.60;1.50;;;7.90;99.90;;;;;;472213;250;27812;-79
2023/01/08 09:20:11;;;;;;;1.40;1.40;;;7.90;99.90;;;;;;472223;250;27815;-80
2023/01/08 09:22:13;;;;;;;1.30;1.30;;;7.90;99.90;;;;;;472204;252;27939;-80
2023/01/08 09:24:14;;;;;;;1.60;1.50;;;8.00;99.90;;;;;;472225;250;27782;-79
2023/01/08 09:26:15;;;;;;;1.37;1.37;;;8.00;99.90;;;;;;472200;250;27977;-78
2023/01/08 09:28:17;;;;;;;2.60;1.62;;;8.00;99.90;;;;;;471450;250;36282;-79
2023/01/08 09:30:18;;;;;;;1.50;1.40;;;8.00;99.90;;;;;;472197;250;27590;-79
2023/01/08 09:32:19;;;;;;;1.60;1.50;;;8.00;99.90;;;;;;472218;250;28107;-80
2023/01/08 09:34:20;;;;;;;1.57;1.50;;;8.00;99.90;;;;;;472222;250;27820;-80
2023/01/08 09:36:21;;;;;;;1.90;1.80;;;8.00;99.90;;;;;;472266;250;27962;-79
2023/01/08 09:38:23;;;;;;;1.67;1.57;;;7.90;99.90;;;;;;472219;250;27986;-79
2023/01/08 09:40:24;;;;;;;1.27;1.27;;;8.00;99.90;;;;;;472199;250;27822;-80
2023/01/08 09:42:25;;;;;;;1.70;1.60;;;8.00;99.90;;;;;;472213;246;28601;-79
2023/01/08 09:44:26;;;;;;;2.23;2.10;;;8.00;99.90;;;;;;472226;250;28358;-79
2023/01/08 09:46:28;;;;;;;2.20;1.80;;;8.00;99.90;;;;;;472226;250;28661;-79
2023/01/08 09:48:29;;;;;;;1.63;1.57;;;8.00;99.90;;;;;;472173;247;28457;-79
2023/01/08 09:50:31;;;;;;;1.80;1.70;;;8.10;99.90;;;;;;472131;250;29104;-80
2023/01/08 09:52:31;;;;;;;1.90;1.80;;;8.10;99.90;;;;;;472121;251;29128;-80
2023/01/08 09:54:33;;;;;;;1.83;1.73;;;8.10;99.90;;;;;;472192;250;28059;-80
2023/01/08 09:56:34;;;;;;;2.63;1.67;;;8.10;99.90;;;;;;472207;250;27811;-79
2023/01/08 09:58:35;;;;;;;1.90;1.70;;;8.20;99.90;;;;;;472176;250;28229;-79
2023/01/08 10:00:36;;;;;;;2.03;1.93;;;8.30;99.90;;;;;;472180;251;27941;-79
2023/01/08 10:02:38;;;;;;;2.00;1.90;;;8.20;99.90;;;;;;472214;250;27937;-78
2023/01/08 10:04:39;;;;;;;2.17;1.97;;;8.20;99.90;;;;;;472228;250;27984;-79
2023/01/08 10:06:40;;;;;;;3.67;1.80;;;8.30;99.90;;;;;;472211;251;27867;-79
2023/01/08 10:08:41;;;;;;;1.37;1.33;;;8.20;99.90;;;;;;472211;250;27979;-79
2023/01/08 10:10:43;;;;;;;1.50;1.27;;;8.10;99.90;;;;;;472174;250;28018;-79
2023/01/08 10:12:44;;;;;;;2.30;1.87;;;8.20;99.90;;;;;;472291;250;28253;-80
2023/01/08 10:14:48;;;;;;;5.70;1.57;;;8.20;99.90;;;;;;472241;250;28115;-79
2023/01/08 10:16:46;;;;;;;1.60;1.50;;;8.20;99.90;;;;;;472015;252;27824;-79
2023/01/08 10:18:48;;;;;;;1.80;1.70;;;8.20;99.90;;;;;;472213;251;27919;-79
2023/01/08 10:20:49;;;;;;;1.60;1.50;;;8.30;99.90;;;;;;472194;250;28476;-79
2023/01/08 10:22:53;;;;;;;1.50;1.40;;;8.40;99.90;;;;;;472256;250;27933;-79
2023/01/08 10:24:52;;;;;;;1.80;1.70;;;8.50;99.90;;;;;;472076;252;28010;-79
2023/01/08 10:26:53;;;;;;;3.00;2.20;;;8.70;99.90;;;;;;472237;250;28050;-79
2023/01/08 10:28:54;;;;;;;1.90;1.80;;;8.70;99.90;;;;;;472232;247;27904;-79
2023/01/08 10:30:55;;;;;;;1.33;1.33;;;8.70;99.90;;;;;;472232;250;27988;-79
2023/01/08 10:32:57;;;;;;;1.10;1.10;;;8.60;99.90;;;;;;472253;251;27608;-79
2023/01/08 10:34:58;;;;;;;1.60;1.50;;;8.60;99.90;;;;;;472244;251;27514;-79
2023/01/08 10:36:59;;;;;;;1.40;1.30;;;8.50;99.90;;;;;;472240;250;27833;-79
2023/01/08 10:39:00;;;;;;;1.63;1.53;;;8.50;99.90;;;;;;472249;250;27431;-79